This is the latest recevied weather packets stored in our database for station/object N8QQQ. If no packets are shown the sender has not sent any weather packets the latest 10 day(s).
| Time | Temp. | Humidity | Pressure | Rain* | Wind** | Luminosity | Snow |
|---|---|---|---|---|---|---|---|
| 1778026384 | 3.33° C | 53% | 1008.5 hPa | 0 mm | - | 15 W/m² | - |
| 1778026081 | 3.33° C | 53% | 1008.6 hPa | 0 mm | - | 19 W/m² | - |
| 1778025779 | 3.33° C | 53% | 1008.7 hPa | 0 mm | - | 22 W/m² | - |
| 1778025475 | 3.33° C | 53% | 1008.6 hPa | 0 mm | - | 24 W/m² | - |
| 1778025173 | 3.33° C | 51% | 1008.4 hPa | 0 mm | - | 27 W/m² | - |
| 1778024870 | 3.89° C | 51% | 1008.6 hPa | 0 mm | - | 31 W/m² | - |
| 1778024567 | 3.89° C | 51% | 1008.4 hPa | 0 mm | - | 30 W/m² | - |
| 1778024264 | 3.33° C | 51% | 1008.5 hPa | 0 mm | - | 31 W/m² | - |
| 1778023962 | 3.89° C | 50% | 1008.2 hPa | 0 mm | - | 35 W/m² | - |
| 1778023659 | 3.89° C | 50% | 1008.4 hPa | 0 mm | - | 40 W/m² | - |
| 1778023356 | 3.89° C | 50% | 1008.4 hPa | 0 mm | - | 40 W/m² | - |
| 1778023052 | 3.89° C | 51% | 1008.4 hPa | 0 mm | - | 50 W/m² | - |
| 1778022752 | 3.89° C | 50% | 1008.4 hPa | 0 mm | - | 49 W/m² | - |
| 1778022450 | 3.89° C | 50% | 1008.4 hPa | 0 mm | - | 50 W/m² | - |
| 1778022146 | 3.89° C | 50% | 1008.3 hPa | 0 mm | - | 52 W/m² | - |
| 1778021842 | 3.89° C | 49% | 1008.3 hPa | 0 mm | - | 63 W/m² | - |
| 1778021540 | 4.44° C | 49% | 1008.3 hPa | 0 mm | - | 71 W/m² | - |
| 1778021235 | 4.44° C | 48% | 1008 hPa | 0 mm | - | 96 W/m² | - |
| 1778020933 | 4.44° C | 48% | 1008 hPa | 0 mm | - | 91 W/m² | - |
| 1778020630 | 5° C | 47% | 1008.2 hPa | 0 mm | - | 127 W/m² | - |
| 1778020326 | 5° C | 46% | 1008 hPa | 0 mm | - | 131 W/m² | - |
| 1778020022 | 5° C | 45% | 1008.1 hPa | 0 mm | - | 202 W/m² | - |
| 1778019718 | 5° C | 47% | 1007.7 hPa | 0 mm | - | 104 W/m² | - |
| 1778019416 | 5° C | 47% | 1007.8 hPa | 0 mm | - | 132 W/m² | - |
| 1778019112 | 5.56° C | 46% | 1007.7 hPa | 0 mm | - | 88 W/m² | - |
* Rain latest hour (hover to see other rain measurements)
** Current wind speed in m/s (hover to see current wind gust speed)